sensor_id;sensor_type;location;lat;lon;timestamp;temperature;humidity
35495;DHT22;75532;49.300;6.846;2024-03-02T00:01:01;21.10;48.90
35495;DHT22;75532;49.300;6.846;2024-03-02T00:04:06;21.20;48.80
35495;DHT22;75532;49.300;6.846;2024-03-02T00:07:07;21.10;48.70
35495;DHT22;75532;49.300;6.846;2024-03-02T00:10:10;21.10;48.70
35495;DHT22;75532;49.300;6.846;2024-03-02T00:13:14;21.10;48.80
35495;DHT22;75532;49.300;6.846;2024-03-02T00:16:14;21.10;48.70
35495;DHT22;75532;49.300;6.846;2024-03-02T00:19:16;21.10;48.80
35495;DHT22;75532;49.300;6.846;2024-03-02T00:22:17;21.10;48.70
35495;DHT22;75532;49.300;6.846;2024-03-02T00:25:18;21.10;48.80
35495;DHT22;75532;49.300;6.846;2024-03-02T00:28:34;21.10;48.80
35495;DHT22;75532;49.300;6.846;2024-03-02T00:31:35;21.10;48.80
35495;DHT22;75532;49.300;6.846;2024-03-02T00:34:35;21.10;49.00
35495;DHT22;75532;49.300;6.846;2024-03-02T00:37:36;21.10;48.90
35495;DHT22;75532;49.300;6.846;2024-03-02T00:40:36;21.10;48.80
35495;DHT22;75532;49.300;6.846;2024-03-02T00:47:03;21.10;48.70
35495;DHT22;75532;49.300;6.846;2024-03-02T00:50:05;21.10;48.70
35495;DHT22;75532;49.300;6.846;2024-03-02T00:53:10;21.10;48.60
35495;DHT22;75532;49.300;6.846;2024-03-02T00:56:12;21.10;48.60
35495;DHT22;75532;49.300;6.846;2024-03-02T00:59:12;21.10;48.90
35495;DHT22;75532;49.300;6.846;2024-03-02T01:02:13;21.10;48.90
35495;DHT22;75532;49.300;6.846;2024-03-02T01:05:14;21.10;48.80
35495;DHT22;75532;49.300;6.846;2024-03-02T01:08:14;21.10;48.70
35495;DHT22;75532;49.300;6.846;2024-03-02T01:11:15;21.10;48.70
35495;DHT22;75532;49.300;6.846;2024-03-02T01:14:15;21.10;48.70
35495;DHT22;75532;49.300;6.846;2024-03-02T01:17:16;21.10;48.60
35495;DHT22;75532;49.300;6.846;2024-03-02T01:20:17;21.00;48.80
35495;DHT22;75532;49.300;6.846;2024-03-02T01:23:18;21.10;48.50
35495;DHT22;75532;49.300;6.846;2024-03-02T01:26:19;21.10;48.60
35495;DHT22;75532;49.300;6.846;2024-03-02T01:29:20;21.00;48.50
35495;DHT22;75532;49.300;6.846;2024-03-02T01:32:21;21.00;48.50
35495;DHT22;75532;49.300;6.846;2024-03-02T01:35:22;21.00;48.40
35495;DHT22;75532;49.300;6.846;2024-03-02T01:38:22;21.00;48.40
35495;DHT22;75532;49.300;6.846;2024-03-02T01:41:23;21.00;48.50
35495;DHT22;75532;49.300;6.846;2024-03-02T01:44:23;21.00;48.50
35495;DHT22;75532;49.300;6.846;2024-03-02T01:47:24;21.00;48.70
35495;DHT22;75532;49.300;6.846;2024-03-02T01:50:29;21.00;48.70
35495;DHT22;75532;49.300;6.846;2024-03-02T01:53:29;21.00;48.70
35495;DHT22;75532;49.300;6.846;2024-03-02T01:56:30;21.00;48.70
35495;DHT22;75532;49.300;6.846;2024-03-02T01:59:31;21.00;48.60
35495;DHT22;75532;49.300;6.846;2024-03-02T02:02:31;21.10;48.60
35495;DHT22;75532;49.300;6.846;2024-03-02T02:05:32;21.10;48.50
35495;DHT22;75532;49.300;6.846;2024-03-02T02:08:33;21.10;48.30
35495;DHT22;75532;49.300;6.846;2024-03-02T02:11:34;21.10;48.30
35495;DHT22;75532;49.300;6.846;2024-03-02T02:14:35;21.10;48.30
35495;DHT22;75532;49.300;6.846;2024-03-02T02:17:35;21.10;48.20
35495;DHT22;75532;49.300;6.846;2024-03-02T02:20:36;21.10;48.30
35495;DHT22;75532;49.300;6.846;2024-03-02T02:23:36;21.10;48.20
35495;DHT22;75532;49.300;6.846;2024-03-02T02:26:37;21.10;48.20
35495;DHT22;75532;49.300;6.846;2024-03-02T02:29:38;21.10;48.80
35495;DHT22;75532;49.300;6.846;2024-03-02T02:32:38;21.10;48.10
35495;DHT22;75532;49.300;6.846;2024-03-02T02:35:39;21.10;48.10
35495;DHT22;75532;49.300;6.846;2024-03-02T02:38:43;21.10;48.10
35495;DHT22;75532;49.300;6.846;2024-03-02T02:41:44;21.10;48.20
35495;DHT22;75532;49.300;6.846;2024-03-02T02:44:44;21.10;48.10
35495;DHT22;75532;49.300;6.846;2024-03-02T02:47:45;21.10;48.10
35495;DHT22;75532;49.300;6.846;2024-03-02T02:50:46;21.10;48.10
35495;DHT22;75532;49.300;6.846;2024-03-02T02:53:46;21.10;48.10
35495;DHT22;75532;49.300;6.846;2024-03-02T02:56:47;21.10;48.80
35495;DHT22;75532;49.300;6.846;2024-03-02T02:59:47;21.10;48.20
35495;DHT22;75532;49.300;6.846;2024-03-02T03:02:49;21.10;48.10
35495;DHT22;75532;49.300;6.846;2024-03-02T03:05:50;21.10;48.20
35495;DHT22;75532;49.300;6.846;2024-03-02T03:08:50;21.10;48.20
35495;DHT22;75532;49.300;6.846;2024-03-02T03:11:51;21.10;48.10
35495;DHT22;75532;49.300;6.846;2024-03-02T03:14:51;21.10;48.10
35495;DHT22;75532;49.300;6.846;2024-03-02T03:17:52;21.10;48.10
35495;DHT22;75532;49.300;6.846;2024-03-02T03:20:52;21.10;48.10
35495;DHT22;75532;49.300;6.846;2024-03-02T03:23:53;21.10;48.10
35495;DHT22;75532;49.300;6.846;2024-03-02T03:26:53;21.10;48.10
35495;DHT22;75532;49.300;6.846;2024-03-02T03:29:54;21.10;48.10
35495;DHT22;75532;49.300;6.846;2024-03-02T03:32:55;21.00;48.00
35495;DHT22;75532;49.300;6.846;2024-03-02T03:35:56;21.10;48.10
35495;DHT22;75532;49.300;6.846;2024-03-02T03:38:56;21.10;48.10
35495;DHT22;75532;49.300;6.846;2024-03-02T03:41:58;21.00;48.00
35495;DHT22;75532;49.300;6.846;2024-03-02T03:44:58;21.00;48.10
35495;DHT22;75532;49.300;6.846;2024-03-02T03:47:59;21.00;48.00
35495;DHT22;75532;49.300;6.846;2024-03-02T03:50:59;21.00;48.10
35495;DHT22;75532;49.300;6.846;2024-03-02T03:54:00;21.00;48.00
35495;DHT22;75532;49.300;6.846;2024-03-02T03:57:00;21.00;48.10
35495;DHT22;75532;49.300;6.846;2024-03-02T04:00:01;21.00;48.10
35495;DHT22;75532;49.300;6.846;2024-03-02T04:03:02;21.00;48.10
35495;DHT22;75532;49.300;6.846;2024-03-02T04:06:03;21.00;48.00
35495;DHT22;75532;49.300;6.846;2024-03-02T04:09:04;21.00;48.00
35495;DHT22;75532;49.300;6.846;2024-03-02T04:12:04;21.00;48.10
35495;DHT22;75532;49.300;6.846;2024-03-02T04:15:06;21.00;48.00
35495;DHT22;75532;49.300;6.846;2024-03-02T04:18:06;21.00;48.10
35495;DHT22;75532;49.300;6.846;2024-03-02T04:21:07;21.00;48.20
35495;DHT22;75532;49.300;6.846;2024-03-02T04:24:08;21.00;48.00
35495;DHT22;75532;49.300;6.846;2024-03-02T04:27:08;21.00;48.10
35495;DHT22;75532;49.300;6.846;2024-03-02T04:30:09;21.00;48.20
35495;DHT22;75532;49.300;6.846;2024-03-02T04:33:10;21.00;48.00
35495;DHT22;75532;49.300;6.846;2024-03-02T04:36:10;21.00;48.20
35495;DHT22;75532;49.300;6.846;2024-03-02T04:39:11;21.00;48.20
35495;DHT22;75532;49.300;6.846;2024-03-02T04:42:11;21.00;48.20
35495;DHT22;75532;49.300;6.846;2024-03-02T04:45:12;20.90;48.20
35495;DHT22;75532;49.300;6.846;2024-03-02T04:48:13;21.00;48.40
35495;DHT22;75532;49.300;6.846;2024-03-02T04:51:14;21.00;48.60
35495;DHT22;75532;49.300;6.846;2024-03-02T04:54:14;21.00;48.30
35495;DHT22;75532;49.300;6.846;2024-03-02T04:57:15;20.90;48.20
35495;DHT22;75532;49.300;6.846;2024-03-02T05:00:16;21.00;48.10
35495;DHT22;75532;49.300;6.846;2024-03-02T05:03:16;21.00;48.10
35495;DHT22;75532;49.300;6.846;2024-03-02T05:06:17;20.90;48.00
35495;DHT22;75532;49.300;6.846;2024-03-02T05:09:18;21.00;48.10
35495;DHT22;75532;49.300;6.846;2024-03-02T05:12:18;21.00;48.00
35495;DHT22;75532;49.300;6.846;2024-03-02T05:15:37;21.00;48.00
35495;DHT22;75532;49.300;6.846;2024-03-02T05:18:38;21.00;48.00
35495;DHT22;75532;49.300;6.846;2024-03-02T05:21:39;21.00;47.90
35495;DHT22;75532;49.300;6.846;2024-03-02T05:24:39;21.00;48.00
35495;DHT22;75532;49.300;6.846;2024-03-02T05:27:40;21.00;47.90
35495;DHT22;75532;49.300;6.846;2024-03-02T05:30:42;21.00;47.90
35495;DHT22;75532;49.300;6.846;2024-03-02T05:33:43;21.00;47.90
35495;DHT22;75532;49.300;6.846;2024-03-02T05:36:44;21.00;47.90
35495;DHT22;75532;49.300;6.846;2024-03-02T05:39:44;21.00;47.90
35495;DHT22;75532;49.300;6.846;2024-03-02T05:42:45;21.00;47.90
35495;DHT22;75532;49.300;6.846;2024-03-02T05:45:48;21.00;47.90
35495;DHT22;75532;49.300;6.846;2024-03-02T05:48:49;21.00;47.90
35495;DHT22;75532;49.300;6.846;2024-03-02T05:51:50;21.00;48.00
35495;DHT22;75532;49.300;6.846;2024-03-02T05:54:50;21.00;47.90
35495;DHT22;75532;49.300;6.846;2024-03-02T05:57:51;21.00;47.90
35495;DHT22;75532;49.300;6.846;2024-03-02T06:00:57;21.00;47.90
35495;DHT22;75532;49.300;6.846;2024-03-02T06:03:58;21.00;47.90
35495;DHT22;75532;49.300;6.846;2024-03-02T06:06:59;21.10;47.90
35495;DHT22;75532;49.300;6.846;2024-03-02T06:09:59;21.10;47.90
35495;DHT22;75532;49.300;6.846;2024-03-02T06:13:00;21.00;47.80
35495;DHT22;75532;49.300;6.846;2024-03-02T06:16:00;21.00;47.90
35495;DHT22;75532;49.300;6.846;2024-03-02T06:19:01;21.00;47.90
35495;DHT22;75532;49.300;6.846;2024-03-02T06:22:02;21.00;48.00
35495;DHT22;75532;49.300;6.846;2024-03-02T06:25:03;21.00;47.90
35495;DHT22;75532;49.300;6.846;2024-03-02T06:28:04;21.00;48.00
35495;DHT22;75532;49.300;6.846;2024-03-02T06:31:04;21.10;48.00
35495;DHT22;75532;49.300;6.846;2024-03-02T06:34:05;21.10;48.00
35495;DHT22;75532;49.300;6.846;2024-03-02T06:37:05;21.10;47.90
35495;DHT22;75532;49.300;6.846;2024-03-02T06:40:07;21.10;48.00
35495;DHT22;75532;49.300;6.846;2024-03-02T06:43:08;21.10;47.90
35495;DHT22;75532;49.300;6.846;2024-03-02T06:46:09;21.10;47.90
35495;DHT22;75532;49.300;6.846;2024-03-02T06:49:09;21.10;47.90
35495;DHT22;75532;49.300;6.846;2024-03-02T06:52:13;21.10;47.90
35495;DHT22;75532;49.300;6.846;2024-03-02T06:55:13;21.00;47.90
35495;DHT22;75532;49.300;6.846;2024-03-02T06:58:15;21.10;48.00
35495;DHT22;75532;49.300;6.846;2024-03-02T07:01:16;21.10;48.00
35495;DHT22;75532;49.300;6.846;2024-03-02T07:04:16;21.10;47.90
35495;DHT22;75532;49.300;6.846;2024-03-02T07:07:17;21.10;47.90
35495;DHT22;75532;49.300;6.846;2024-03-02T07:10:17;21.10;47.90
35495;DHT22;75532;49.300;6.846;2024-03-02T07:13:18;21.10;47.90
35495;DHT22;75532;49.300;6.846;2024-03-02T07:16:19;21.10;47.90
35495;DHT22;75532;49.300;6.846;2024-03-02T07:19:28;21.10;47.90
35495;DHT22;75532;49.300;6.846;2024-03-02T07:22:29;21.10;47.90
35495;DHT22;75532;49.300;6.846;2024-03-02T07:25:29;21.10;47.80
35495;DHT22;75532;49.300;6.846;2024-03-02T07:28:30;21.10;47.70
35495;DHT22;75532;49.300;6.846;2024-03-02T07:31:31;21.10;47.70
35495;DHT22;75532;49.300;6.846;2024-03-02T07:34:32;21.10;47.80
35495;DHT22;75532;49.300;6.846;2024-03-02T07:37:32;21.20;47.90
35495;DHT22;75532;49.300;6.846;2024-03-02T07:40:33;21.20;47.90
35495;DHT22;75532;49.300;6.846;2024-03-02T07:43:34;21.20;47.90
35495;DHT22;75532;49.300;6.846;2024-03-02T07:46:34;21.20;47.90
35495;DHT22;75532;49.300;6.846;2024-03-02T07:49:35;21.20;47.80
35495;DHT22;75532;49.300;6.846;2024-03-02T07:52:36;21.20;47.70
35495;DHT22;75532;49.300;6.846;2024-03-02T07:55:36;21.20;47.70
35495;DHT22;75532;49.300;6.846;2024-03-02T07:58:37;21.30;47.70
35495;DHT22;75532;49.300;6.846;2024-03-02T08:01:37;21.30;47.70
35495;DHT22;75532;49.300;6.846;2024-03-02T08:04:38;21.30;47.70
35495;DHT22;75532;49.300;6.846;2024-03-02T08:07:39;21.30;47.80
35495;DHT22;75532;49.300;6.846;2024-03-02T08:10:39;21.20;47.70
35495;DHT22;75532;49.300;6.846;2024-03-02T08:13:40;21.20;47.70
35495;DHT22;75532;49.300;6.846;2024-03-02T08:16:41;21.20;47.80
35495;DHT22;75532;49.300;6.846;2024-03-02T08:19:42;21.20;47.80
35495;DHT22;75532;49.300;6.846;2024-03-02T08:22:42;21.20;47.80
35495;DHT22;75532;49.300;6.846;2024-03-02T08:25:43;21.20;48.40
35495;DHT22;75532;49.300;6.846;2024-03-02T08:28:44;21.20;47.80
35495;DHT22;75532;49.300;6.846;2024-03-02T08:31:44;21.20;47.90
35495;DHT22;75532;49.300;6.846;2024-03-02T08:34:45;21.20;47.90
35495;DHT22;75532;49.300;6.846;2024-03-02T08:37:46;21.20;47.90
35495;DHT22;75532;49.300;6.846;2024-03-02T08:40:46;21.20;48.00
35495;DHT22;75532;49.300;6.846;2024-03-02T08:43:47;21.20;48.00
35495;DHT22;75532;49.300;6.846;2024-03-02T08:46:48;21.20;48.00
35495;DHT22;75532;49.300;6.846;2024-03-02T08:49:48;21.20;48.10
35495;DHT22;75532;49.300;6.846;2024-03-02T08:52:49;21.20;48.00
35495;DHT22;75532;49.300;6.846;2024-03-02T08:55:49;21.20;48.10
35495;DHT22;75532;49.300;6.846;2024-03-02T08:58:51;21.20;48.10
35495;DHT22;75532;49.300;6.846;2024-03-02T09:01:52;21.20;48.10
35495;DHT22;75532;49.300;6.846;2024-03-02T09:04:53;21.20;48.10
35495;DHT22;75532;49.300;6.846;2024-03-02T09:07:53;21.20;48.00
35495;DHT22;75532;49.300;6.846;2024-03-02T09:10:54;21.20;48.20
35495;DHT22;75532;49.300;6.846;2024-03-02T09:13:56;21.20;48.10
35495;DHT22;75532;49.300;6.846;2024-03-02T09:16:58;21.20;48.00
35495;DHT22;75532;49.300;6.846;2024-03-02T09:19:58;21.20;48.10
35495;DHT22;75532;49.300;6.846;2024-03-02T09:22:59;21.20;48.20
35495;DHT22;75532;49.300;6.846;2024-03-02T09:25:59;21.20;48.20
35495;DHT22;75532;49.300;6.846;2024-03-02T09:29:00;21.20;48.20
35495;DHT22;75532;49.300;6.846;2024-03-02T09:32:01;21.20;48.20
35495;DHT22;75532;49.300;6.846;2024-03-02T09:35:01;21.20;48.10
35495;DHT22;75532;49.300;6.846;2024-03-02T09:38:02;21.20;48.10
35495;DHT22;75532;49.300;6.846;2024-03-02T09:41:04;21.30;48.10
35495;DHT22;75532;49.300;6.846;2024-03-02T09:44:05;21.20;48.10
35495;DHT22;75532;49.300;6.846;2024-03-02T09:47:07;21.30;48.20
35495;DHT22;75532;49.300;6.846;2024-03-02T09:50:08;21.20;48.20
35495;DHT22;75532;49.300;6.846;2024-03-02T09:53:09;21.20;48.20
35495;DHT22;75532;49.300;6.846;2024-03-02T09:56:10;21.20;48.30
35495;DHT22;75532;49.300;6.846;2024-03-02T09:59:11;21.30;48.40
35495;DHT22;75532;49.300;6.846;2024-03-02T10:02:13;21.30;48.60
35495;DHT22;75532;49.300;6.846;2024-03-02T10:05:24;21.30;48.80
35495;DHT22;75532;49.300;6.846;2024-03-02T10:08:42;21.30;49.00
35495;DHT22;75532;49.300;6.846;2024-03-02T10:11:44;21.30;50.00
35495;DHT22;75532;49.300;6.846;2024-03-02T10:14:45;21.30;49.60
35495;DHT22;75532;49.300;6.846;2024-03-02T10:17:46;21.30;49.60
35495;DHT22;75532;49.300;6.846;2024-03-02T10:20:46;21.30;49.60
35495;DHT22;75532;49.300;6.846;2024-03-02T10:23:49;21.20;49.30
35495;DHT22;75532;49.300;6.846;2024-03-02T10:26:50;21.20;48.40
35495;DHT22;75532;49.300;6.846;2024-03-02T10:29:50;21.10;49.40
35495;DHT22;75532;49.300;6.846;2024-03-02T10:32:53;21.20;49.10
35495;DHT22;75532;49.300;6.846;2024-03-02T10:35:54;21.20;49.10
35495;DHT22;75532;49.300;6.846;2024-03-02T10:38:58;21.20;49.00
35495;DHT22;75532;49.300;6.846;2024-03-02T10:42:01;21.20;48.90
35495;DHT22;75532;49.300;6.846;2024-03-02T10:45:06;21.20;50.00
35495;DHT22;75532;49.300;6.846;2024-03-02T10:48:08;21.30;50.60
35495;DHT22;75532;49.300;6.846;2024-03-02T10:51:09;21.30;50.80
35495;DHT22;75532;49.300;6.846;2024-03-02T10:54:09;21.30;50.80
35495;DHT22;75532;49.300;6.846;2024-03-02T10:57:11;21.30;50.90
35495;DHT22;75532;49.300;6.846;2024-03-02T11:00:14;21.30;50.60
35495;DHT22;75532;49.300;6.846;2024-03-02T11:03:16;21.30;50.50
35495;DHT22;75532;49.300;6.846;2024-03-02T11:06:17;21.30;50.80
35495;DHT22;75532;49.300;6.846;2024-03-02T11:09:22;21.30;50.50
35495;DHT22;75532;49.300;6.846;2024-03-02T11:12:29;21.30;50.90
35495;DHT22;75532;49.300;6.846;2024-03-02T11:15:31;21.30;50.80
35495;DHT22;75532;49.300;6.846;2024-03-02T11:18:34;21.30;51.20
35495;DHT22;75532;49.300;6.846;2024-03-02T11:21:35;21.30;51.20
35495;DHT22;75532;49.300;6.846;2024-03-02T11:24:36;21.30;50.90
35495;DHT22;75532;49.300;6.846;2024-03-02T11:33:47;21.30;50.80
35495;DHT22;75532;49.300;6.846;2024-03-02T11:36:48;21.20;50.30
35495;DHT22;75532;49.300;6.846;2024-03-02T11:39:50;21.20;50.40
35495;DHT22;75532;49.300;6.846;2024-03-02T11:42:51;21.20;50.10
35495;DHT22;75532;49.300;6.846;2024-03-02T11:46:04;21.20;50.80
35495;DHT22;75532;49.300;6.846;2024-03-02T11:49:07;21.20;49.80
35495;DHT22;75532;49.300;6.846;2024-03-02T11:52:09;21.30;49.70
35495;DHT22;75532;49.300;6.846;2024-03-02T11:55:11;21.30;49.80
35495;DHT22;75532;49.300;6.846;2024-03-02T11:58:13;21.30;49.70
35495;DHT22;75532;49.300;6.846;2024-03-02T12:01:14;21.30;50.50
35495;DHT22;75532;49.300;6.846;2024-03-02T12:04:15;21.30;49.90
35495;DHT22;75532;49.300;6.846;2024-03-02T12:07:23;21.30;50.20
35495;DHT22;75532;49.300;6.846;2024-03-02T12:10:24;21.30;50.30
35495;DHT22;75532;49.300;6.846;2024-03-02T12:13:25;21.20;50.10
35495;DHT22;75532;49.300;6.846;2024-03-02T12:16:25;21.20;50.00
35495;DHT22;75532;49.300;6.846;2024-03-02T12:19:26;21.20;50.00
35495;DHT22;75532;49.300;6.846;2024-03-02T12:22:28;21.20;50.10
35495;DHT22;75532;49.300;6.846;2024-03-02T12:25:31;21.20;50.20
35495;DHT22;75532;49.300;6.846;2024-03-02T12:28:33;21.20;50.00
35495;DHT22;75532;49.300;6.846;2024-03-02T12:31:34;21.20;50.00
35495;DHT22;75532;49.300;6.846;2024-03-02T12:34:38;21.20;50.00
35495;DHT22;75532;49.300;6.846;2024-03-02T12:37:46;21.20;50.20
35495;DHT22;75532;49.300;6.846;2024-03-02T12:40:50;21.20;50.00
35495;DHT22;75532;49.300;6.846;2024-03-02T12:43:51;21.10;49.70
35495;DHT22;75532;49.300;6.846;2024-03-02T12:46:52;21.10;49.50
35495;DHT22;75532;49.300;6.846;2024-03-02T12:49:54;21.10;50.00
35495;DHT22;75532;49.300;6.846;2024-03-02T12:52:55;21.10;49.40
35495;DHT22;75532;49.300;6.846;2024-03-02T12:55:56;21.10;49.70
35495;DHT22;75532;49.300;6.846;2024-03-02T12:58:58;21.10;49.70
35495;DHT22;75532;49.300;6.846;2024-03-02T13:01:58;21.10;49.10
35495;DHT22;75532;49.300;6.846;2024-03-02T13:04:59;21.20;49.30
35495;DHT22;75532;49.300;6.846;2024-03-02T13:08:00;21.20;49.20
35495;DHT22;75532;49.300;6.846;2024-03-02T13:11:01;21.20;49.00
35495;DHT22;75532;49.300;6.846;2024-03-02T13:14:01;21.20;49.20
35495;DHT22;75532;49.300;6.846;2024-03-02T13:17:02;21.20;49.10
35495;DHT22;75532;49.300;6.846;2024-03-02T13:20:06;21.20;49.10
35495;DHT22;75532;49.300;6.846;2024-03-02T13:23:10;21.20;49.20
35495;DHT22;75532;49.300;6.846;2024-03-02T13:26:11;21.20;49.10
35495;DHT22;75532;49.300;6.846;2024-03-02T13:29:12;21.20;49.20
35495;DHT22;75532;49.300;6.846;2024-03-02T13:32:14;21.20;49.30
35495;DHT22;75532;49.300;6.846;2024-03-02T13:35:15;21.20;49.10
35495;DHT22;75532;49.300;6.846;2024-03-02T13:38:20;21.20;49.30
35495;DHT22;75532;49.300;6.846;2024-03-02T13:41:20;21.20;49.00
35495;DHT22;75532;49.300;6.846;2024-03-02T13:44:21;21.20;49.10
35495;DHT22;75532;49.300;6.846;2024-03-02T13:47:22;21.20;49.10
35495;DHT22;75532;49.300;6.846;2024-03-02T13:50:22;21.20;49.10
35495;DHT22;75532;49.300;6.846;2024-03-02T13:53:23;21.20;49.00
35495;DHT22;75532;49.300;6.846;2024-03-02T13:56:23;21.20;49.10
35495;DHT22;75532;49.300;6.846;2024-03-02T13:59:25;21.20;49.00
35495;DHT22;75532;49.300;6.846;2024-03-02T14:02:25;21.20;49.00
35495;DHT22;75532;49.300;6.846;2024-03-02T14:05:26;21.10;49.00
35495;DHT22;75532;49.300;6.846;2024-03-02T14:08:27;21.20;49.00
35495;DHT22;75532;49.300;6.846;2024-03-02T14:11:28;21.20;49.20
35495;DHT22;75532;49.300;6.846;2024-03-02T14:14:29;21.20;49.00
35495;DHT22;75532;49.300;6.846;2024-03-02T14:17:29;21.20;49.00
35495;DHT22;75532;49.300;6.846;2024-03-02T14:20:32;21.20;48.80
35495;DHT22;75532;49.300;6.846;2024-03-02T14:23:33;21.20;48.90
35495;DHT22;75532;49.300;6.846;2024-03-02T14:26:34;21.20;48.80
35495;DHT22;75532;49.300;6.846;2024-03-02T14:29:34;21.20;48.70
35495;DHT22;75532;49.300;6.846;2024-03-02T14:32:37;21.20;49.20
35495;DHT22;75532;49.300;6.846;2024-03-02T14:35:38;21.20;49.30
35495;DHT22;75532;49.300;6.846;2024-03-02T14:38:39;21.20;49.00
35495;DHT22;75532;49.300;6.846;2024-03-02T14:41:39;21.20;48.90
35495;DHT22;75532;49.300;6.846;2024-03-02T14:44:40;21.10;49.00
35495;DHT22;75532;49.300;6.846;2024-03-02T14:47:42;21.10;48.90
35495;DHT22;75532;49.300;6.846;2024-03-02T14:50:42;21.20;48.80
35495;DHT22;75532;49.300;6.846;2024-03-02T14:53:43;21.10;49.30
35495;DHT22;75532;49.300;6.846;2024-03-02T14:56:44;21.20;49.40
35495;DHT22;75532;49.300;6.846;2024-03-02T14:59:44;21.30;49.50
35495;DHT22;75532;49.300;6.846;2024-03-02T15:02:45;21.30;49.60
35495;DHT22;75532;49.300;6.846;2024-03-02T15:05:45;21.30;49.50
35495;DHT22;75532;49.300;6.846;2024-03-02T15:08:46;21.30;49.50
35495;DHT22;75532;49.300;6.846;2024-03-02T15:11:47;21.30;49.50
35495;DHT22;75532;49.300;6.846;2024-03-02T15:14:47;21.30;49.40
35495;DHT22;75532;49.300;6.846;2024-03-02T15:17:48;21.30;49.50
35495;DHT22;75532;49.300;6.846;2024-03-02T15:20:49;21.30;49.40
35495;DHT22;75532;49.300;6.846;2024-03-02T15:23:49;21.30;49.30
35495;DHT22;75532;49.300;6.846;2024-03-02T15:26:50;21.30;49.40
35495;DHT22;75532;49.300;6.846;2024-03-02T15:29:50;21.30;49.70
35495;DHT22;75532;49.300;6.846;2024-03-02T15:32:52;21.30;49.60
35495;DHT22;75532;49.300;6.846;2024-03-02T15:35:53;21.30;49.50
35495;DHT22;75532;49.300;6.846;2024-03-02T15:38:54;21.20;49.40
35495;DHT22;75532;49.300;6.846;2024-03-02T15:41:54;21.20;49.30
35495;DHT22;75532;49.300;6.846;2024-03-02T15:44:55;21.20;49.30
35495;DHT22;75532;49.300;6.846;2024-03-02T15:47:55;21.20;49.30
35495;DHT22;75532;49.300;6.846;2024-03-02T15:50:56;21.20;49.40
35495;DHT22;75532;49.300;6.846;2024-03-02T15:53:57;21.20;49.60
35495;DHT22;75532;49.300;6.846;2024-03-02T15:56:57;21.20;49.40
35495;DHT22;75532;49.300;6.846;2024-03-02T15:59:58;21.30;49.40
35495;DHT22;75532;49.300;6.846;2024-03-02T16:02:59;21.30;49.30
35495;DHT22;75532;49.300;6.846;2024-03-02T16:05:59;21.30;49.20
35495;DHT22;75532;49.300;6.846;2024-03-02T16:09:00;21.20;49.30
35495;DHT22;75532;49.300;6.846;2024-03-02T16:12:01;21.20;49.30
35495;DHT22;75532;49.300;6.846;2024-03-02T16:15:01;21.20;49.30
35495;DHT22;75532;49.300;6.846;2024-03-02T16:18:02;21.20;49.20
35495;DHT22;75532;49.300;6.846;2024-03-02T16:21:03;21.20;49.30
35495;DHT22;75532;49.300;6.846;2024-03-02T16:24:04;21.20;49.20
35495;DHT22;75532;49.300;6.846;2024-03-02T16:27:05;21.20;49.20
35495;DHT22;75532;49.300;6.846;2024-03-02T16:30:08;21.20;49.20
35495;DHT22;75532;49.300;6.846;2024-03-02T16:33:08;21.20;49.10
35495;DHT22;75532;49.300;6.846;2024-03-02T16:36:09;21.20;49.10
35495;DHT22;75532;49.300;6.846;2024-03-02T16:39:10;21.20;49.10
35495;DHT22;75532;49.300;6.846;2024-03-02T16:42:11;21.20;49.10
35495;DHT22;75532;49.300;6.846;2024-03-02T16:45:12;21.20;49.10
35495;DHT22;75532;49.300;6.846;2024-03-02T16:48:12;21.20;49.10
35495;DHT22;75532;49.300;6.846;2024-03-02T16:51:13;21.20;49.20
35495;DHT22;75532;49.300;6.846;2024-03-02T16:54:14;21.30;49.20
35495;DHT22;75532;49.300;6.846;2024-03-02T16:57:15;21.20;49.30
35495;DHT22;75532;49.300;6.846;2024-03-02T17:00:17;21.20;49.30
35495;DHT22;75532;49.300;6.846;2024-03-02T17:03:18;21.20;49.40
35495;DHT22;75532;49.300;6.846;2024-03-02T17:06:18;21.20;49.30
35495;DHT22;75532;49.300;6.846;2024-03-02T17:09:19;21.20;49.20
35495;DHT22;75532;49.300;6.846;2024-03-02T17:12:20;21.30;49.60
35495;DHT22;75532;49.300;6.846;2024-03-02T17:15:21;21.30;49.80
35495;DHT22;75532;49.300;6.846;2024-03-02T17:18:22;21.30;49.80
35495;DHT22;75532;49.300;6.846;2024-03-02T17:21:22;21.30;49.70
35495;DHT22;75532;49.300;6.846;2024-03-02T17:24:23;21.30;49.50
35495;DHT22;75532;49.300;6.846;2024-03-02T17:27:24;21.30;49.40
35495;DHT22;75532;49.300;6.846;2024-03-02T17:30:24;21.30;49.30
35495;DHT22;75532;49.300;6.846;2024-03-02T17:33:25;21.30;49.30
35495;DHT22;75532;49.300;6.846;2024-03-02T17:36:26;21.30;49.20
35495;DHT22;75532;49.300;6.846;2024-03-02T17:39:27;21.30;49.00
35495;DHT22;75532;49.300;6.846;2024-03-02T17:42:27;21.30;49.00
35495;DHT22;75532;49.300;6.846;2024-03-02T17:45:29;21.30;49.00
35495;DHT22;75532;49.300;6.846;2024-03-02T17:48:30;21.30;49.00
35495;DHT22;75532;49.300;6.846;2024-03-02T17:51:30;21.30;49.00
35495;DHT22;75532;49.300;6.846;2024-03-02T17:54:31;21.30;49.00
35495;DHT22;75532;49.300;6.846;2024-03-02T17:57:33;21.30;49.00
35495;DHT22;75532;49.300;6.846;2024-03-02T18:00:34;21.30;48.90
35495;DHT22;75532;49.300;6.846;2024-03-02T18:03:34;21.30;49.00
35495;DHT22;75532;49.300;6.846;2024-03-02T18:06:35;21.30;48.90
35495;DHT22;75532;49.300;6.846;2024-03-02T18:09:36;21.30;48.90
35495;DHT22;75532;49.300;6.846;2024-03-02T18:12:36;21.30;48.90
35495;DHT22;75532;49.300;6.846;2024-03-02T18:15:38;21.30;48.90
35495;DHT22;75532;49.300;6.846;2024-03-02T18:18:40;21.30;48.90
35495;DHT22;75532;49.300;6.846;2024-03-02T18:21:41;21.30;48.90
35495;DHT22;75532;49.300;6.846;2024-03-02T18:24:41;21.30;48.90
35495;DHT22;75532;49.300;6.846;2024-03-02T18:27:42;21.30;48.90
35495;DHT22;75532;49.300;6.846;2024-03-02T18:30:42;21.30;48.90
35495;DHT22;75532;49.300;6.846;2024-03-02T18:33:43;21.30;48.90
35495;DHT22;75532;49.300;6.846;2024-03-02T18:36:43;21.30;48.90
35495;DHT22;75532;49.300;6.846;2024-03-02T18:39:44;21.30;48.90
35495;DHT22;75532;49.300;6.846;2024-03-02T18:42:45;21.30;48.90
35495;DHT22;75532;49.300;6.846;2024-03-02T18:45:46;21.30;48.90
35495;DHT22;75532;49.300;6.846;2024-03-02T18:48:46;21.30;48.90
35495;DHT22;75532;49.300;6.846;2024-03-02T18:51:47;21.30;48.80
35495;DHT22;75532;49.300;6.846;2024-03-02T18:54:47;21.30;48.80
35495;DHT22;75532;49.300;6.846;2024-03-02T18:57:48;21.30;48.80
35495;DHT22;75532;49.300;6.846;2024-03-02T19:00:48;21.30;48.80
35495;DHT22;75532;49.300;6.846;2024-03-02T19:03:49;21.40;48.80
35495;DHT22;75532;49.300;6.846;2024-03-02T19:06:50;21.30;48.80
35495;DHT22;75532;49.300;6.846;2024-03-02T19:09:50;21.30;48.80
35495;DHT22;75532;49.300;6.846;2024-03-02T19:12:51;21.30;48.80